Time;durP1;ratioP1;P1;durP2;ratioP2;P2;SDS_P1;SDS_P2;PMS_P1;PMS_P2;Temp;Humidity;BMP_temperature;BMP_pressure;BME280_temperature;BME280_humidity;BME280_pressure;Samples;Min_cycle;Max_cycle;Signal;HPM_P1;HPM_P2
2022/06/20 00:00:00;;;;;;;;;;;;;;;28.68;36.75;100810.25;4937176;29;1211;-27
2022/06/20 00:02:25;;;;;;;;;;;;;;;28.67;36.91;100797.75;4919723;29;1903;-27
2022/06/20 00:04:51;;;;;;;;;;;;;;;28.61;36.50;100795.81;4917592;29;1041;-31
2022/06/20 00:07:17;;;;;;;;;;;;;;;28.67;36.76;100789.63;4914111;29;1151;-28
2022/06/20 00:09:42;;;;;;;;;;;;;;;28.63;36.95;100791.03;4925803;29;1249;-29
2022/06/20 00:12:08;;;;;;;;;;;;;;;28.59;36.56;100796.00;4927865;29;1167;-28
2022/06/20 00:14:33;;;;;;;;;;;;;;;28.63;37.00;100782.91;4924894;29;1064;-27
2022/06/20 00:16:58;;;;;;;;;;;;;;;28.65;36.74;100783.56;4924278;29;1241;-27
2022/06/20 00:19:24;;;;;;;;;;;;;;;28.67;36.91;100781.53;4935245;29;1127;-27
2022/06/20 00:21:49;;;;;;;;;;;;;;;28.60;36.68;100780.59;4925173;29;885;-29
2022/06/20 00:24:14;;;;;;;;;;;;;;;28.62;36.66;100780.41;4932690;29;1907;-30
2022/06/20 00:26:39;;;;;;;;;;;;;;;28.67;36.57;100778.81;4931647;29;1008;-27
2022/06/20 00:29:05;;;;;;;;;;;;;;;28.71;36.63;100771.97;4931075;29;980;-29
2022/06/20 00:31:31;;;;;;;;;;;;;;;28.67;36.48;100781.53;4927268;29;993;-32
2022/06/20 00:33:56;;;;;;;;;;;;;;;28.66;36.50;100777.13;4926618;29;1028;-32
2022/06/20 00:36:22;;;;;;;;;;;;;;;28.63;36.80;100773.97;4930706;29;1091;-27
2022/06/20 00:38:48;;;;;;;;;;;;;;;28.69;36.80;100773.19;4923731;29;973;-32
2022/06/20 00:41:17;;;;;;;;;;;;;;;28.74;36.68;100776.16;4919125;29;988;-29
2022/06/20 00:43:43;;;;;;;;;;;;;;;28.69;36.66;100775.91;4906028;29;1902;-30
2022/06/20 00:46:09;;;;;;;;;;;;;;;28.67;36.94;100765.28;4924797;29;1039;-30
2022/06/20 00:48:36;;;;;;;;;;;;;;;28.70;36.87;100761.34;4913090;29;981;-30
2022/06/20 00:51:04;;;;;;;;;;;;;;;28.63;36.83;100758.56;4917088;29;1009;-30
2022/06/20 00:53:31;;;;;;;;;;;;;;;28.67;37.00;100761.72;4932552;29;1048;-32
2022/06/20 00:55:58;;;;;;;;;;;;;;;28.66;36.39;100757.34;4925926;29;1056;-29
2022/06/20 00:58:26;;;;;;;;;;;;;;;28.64;36.96;100759.41;4918410;29;1106;-29
2022/06/20 01:00:52;;;;;;;;;;;;;;;28.66;36.79;100760.88;4936444;29;1063;-30
2022/06/20 01:03:18;;;;;;;;;;;;;;;28.60;36.87;100761.66;4911284;29;1919;-28
2022/06/20 01:05:53;;;;;;;;;;;;;;;28.63;36.81;100752.31;4912655;29;867;-28
2022/06/20 01:08:23;;;;;;;;;;;;;;;28.67;36.77;100751.75;4910736;29;937;-29
2022/06/20 01:10:51;;;;;;;;;;;;;;;28.64;36.74;100751.28;4923643;29;1095;-28
2022/06/20 01:13:17;;;;;;;;;;;;;;;28.63;36.96;100750.44;4922666;29;1037;-27
2022/06/20 01:15:43;;;;;;;;;;;;;;;28.67;36.49;100748.19;4922983;29;1206;-27
2022/06/20 01:18:18;;;;;;;;;;;;;;;28.65;36.95;100752.94;4916799;29;1037;-28
2022/06/20 01:20:43;;;;;;;;;;;;;;;28.60;36.97;100743.56;4932756;29;1365;-27
2022/06/20 01:23:08;;;;;;;;;;;;;;;28.64;36.68;100746.72;4927860;29;1973;-27
2022/06/20 01:25:46;;;;;;;;;;;;;;;28.55;37.05;100751.41;4927741;29;985;-27
2022/06/20 01:28:12;;;;;;;;;;;;;;;28.59;36.69;100749.16;4925859;29;989;-28
2022/06/20 01:30:39;;;;;;;;;;;;;;;28.65;36.71;100744.84;4926431;29;1056;-29
2022/06/20 01:33:04;;;;;;;;;;;;;;;28.61;36.86;100749.81;4909395;29;1009;-28
2022/06/20 01:38:14;;;;;;;;;;;;;;;28.60;36.75;100743.56;4921652;29;886;-27
2022/06/20 01:42:18;;;;;;;;;;;;;;;28.62;36.98;100742.50;4921715;29;1198;-29
2022/06/20 01:43:26;;;;;;;;;;;;;;;28.59;36.76;100735.63;4915687;29;1895;-27
2022/06/20 01:45:57;;;;;;;;;;;;;;;28.61;36.73;100736.28;4926851;29;1059;-27
2022/06/20 01:48:23;;;;;;;;;;;;;;;28.57;36.80;100727.72;4914142;29;1024;-28
2022/06/20 01:50:48;;;;;;;;;;;;;;;28.55;36.92;100743.28;4934589;29;1052;-30
2022/06/20 01:53:15;;;;;;;;;;;;;;;28.62;36.61;100739.81;4927631;29;1186;-29
2022/06/20 01:55:40;;;;;;;;;;;;;;;28.58;36.57;100739.34;4929003;29;1256;-29
2022/06/20 01:58:07;;;;;;;;;;;;;;;28.55;36.74;100745.16;4924122;29;1198;-28
2022/06/20 02:00:33;;;;;;;;;;;;;;;28.57;36.58;100743.94;4920188;29;1132;-28
2022/06/20 02:02:59;;;;;;;;;;;;;;;28.63;36.85;100746.91;4909841;29;1896;-29
2022/06/20 02:05:26;;;;;;;;;;;;;;;28.63;36.75;100744.22;4908157;29;1507;-27
2022/06/20 02:07:51;;;;;;;;;;;;;;;28.63;36.77;100752.31;4909684;29;1510;-28
2022/06/20 02:10:31;;;;;;;;;;;;;;;28.59;36.90;100733.75;4924214;29;949;-28
2022/06/20 02:12:57;;;;;;;;;;;;;;;28.57;36.71;100743.94;4910144;29;1016;-29
2022/06/20 02:15:22;;;;;;;;;;;;;;;28.59;36.82;100732.94;4917342;29;965;-27
2022/06/20 02:17:49;;;;;;;;;;;;;;;28.65;36.86;100726.72;4929969;29;1012;-31
2022/06/20 02:20:16;;;;;;;;;;;;;;;28.59;36.44;100727.50;4927241;29;1039;-27
2022/06/20 02:22:41;;;;;;;;;;;;;;;28.57;36.65;100730.41;4931807;29;1894;-28
2022/06/20 02:25:08;;;;;;;;;;;;;;;28.57;36.82;100735.81;4909334;29;1056;-27
2022/06/20 02:27:36;;;;;;;;;;;;;;;28.58;36.38;100742.91;4908948;29;1195;-27
2022/06/20 02:30:02;;;;;;;;;;;;;;;28.63;36.71;100734.19;4909341;29;1076;-27
2022/06/20 02:32:28;;;;;;;;;;;;;;;28.59;36.29;100732.94;4922667;29;1147;-26
2022/06/20 02:34:53;;;;;;;;;;;;;;;28.61;36.68;100736.28;4909160;29;854;-31
2022/06/20 02:37:21;;;;;;;;;;;;;;;28.64;36.78;100735.91;4925516;29;1131;-29
2022/06/20 02:39:46;;;;;;;;;;;;;;;28.58;36.40;100740.19;4931738;29;1025;-30
2022/06/20 02:42:13;;;;;;;;;;;;;;;28.58;36.83;100739.34;4925494;29;997;-29
2022/06/20 02:44:40;;;;;;;;;;;;;;;28.59;36.55;100738.34;4928702;29;1903;-29
2022/06/20 02:47:06;;;;;;;;;;;;;;;28.62;36.73;100737.09;4929396;29;1048;-29
2022/06/20 02:49:31;;;;;;;;;;;;;;;28.57;36.83;100738.53;4909558;29;1148;-28
2022/06/20 02:51:56;;;;;;;;;;;;;;;28.57;36.67;100729.56;4911233;29;982;-27
2022/06/20 02:54:23;;;;;;;;;;;;;;;28.57;36.77;100726.88;4926778;29;1271;-29
2022/06/20 02:56:52;;;;;;;;;;;;;;;28.53;36.35;100726.41;4904467;29;1057;-31
2022/06/20 02:59:21;;;;;;;;;;;;;;;28.53;36.40;100723.69;4911875;29;1017;-29
2022/06/20 03:01:52;;;;;;;;;;;;;;;28.56;36.65;100726.00;4910355;29;1147;-29
2022/06/20 03:04:18;;;;;;;;;;;;;;;28.52;36.64;100718.47;4921807;29;1978;-28
2022/06/20 03:06:45;;;;;;;;;;;;;;;28.53;36.87;100720.19;4904616;29;964;-29
2022/06/20 03:09:10;;;;;;;;;;;;;;;28.56;36.68;100720.59;4919966;29;1005;-31
2022/06/20 03:11:37;;;;;;;;;;;;;;;28.54;36.77;100725.41;4915558;29;1028;-29
2022/06/20 03:14:03;;;;;;;;;;;;;;;28.57;36.32;100724.16;4929747;29;1009;-29
2022/06/20 03:16:28;;;;;;;;;;;;;;;28.51;36.85;100722.22;4907696;29;1021;-27
2022/06/20 03:18:54;;;;;;;;;;;;;;;28.16;37.05;100720.19;4910113;29;1052;-27
2022/06/20 03:21:20;;;;;;;;;;;;;;;27.68;37.34;100724.13;4926521;29;988;-31
2022/06/20 03:23:46;;;;;;;;;;;;;;;27.32;38.15;100717.63;4909325;29;1887;-26
2022/06/20 03:26:24;;;;;;;;;;;;;;;27.11;38.70;100716.50;4925030;29;986;-26
2022/06/20 03:28:50;;;;;;;;;;;;;;;26.89;39.25;100719.03;4908839;29;1064;-29
2022/06/20 03:31:15;;;;;;;;;;;;;;;26.85;39.37;100704.19;4920750;29;1012;-29
2022/06/20 03:33:41;;;;;;;;;;;;;;;26.93;39.39;100716.78;4919672;29;1064;-28
2022/06/20 03:36:08;;;;;;;;;;;;;;;27.07;38.58;100716.00;4937073;29;989;-28
2022/06/20 03:38:34;;;;;;;;;;;;;;;27.06;38.50;100725.13;4928850;29;917;-27
2022/06/20 03:40:59;;;;;;;;;;;;;;;25.77;41.25;100713.78;4930783;29;1043;-26
2022/06/20 03:43:24;;;;;;;;;;;;;;;25.97;41.06;100703.44;4932698;29;1903;-30
2022/06/20 03:45:52;;;;;;;;;;;;;;;26.39;40.37;100709.44;4930526;29;1094;-31
2022/06/20 03:48:21;;;;;;;;;;;;;;;26.11;40.98;100707.22;4907893;29;1001;-29
2022/06/20 03:50:46;;;;;;;;;;;;;;;26.09;40.91;100708.44;4926274;29;1084;-26
2022/06/20 03:53:16;;;;;;;;;;;;;;;26.07;40.88;100700.53;4927246;29;1210;-26
2022/06/20 03:55:51;;;;;;;;;;;;;;;26.33;40.58;100704.75;4941158;29;1076;-26
2022/06/20 03:58:17;;;;;;;;;;;;;;;26.45;40.69;100707.88;4933720;29;964;-31
2022/06/20 04:00:58;;;;;;;;;;;;;;;26.49;40.51;100702.97;4936175;29;1487;-28
2022/06/20 04:03:42;;;;;;;;;;;;;;;25.95;42.52;100710.00;4926674;29;1899;-27
2022/06/20 04:06:09;;;;;;;;;;;;;;;23.96;47.82;100707.19;4928547;29;961;-30
2022/06/20 04:11:36;;;;;;;;;;;;;;;23.70;45.20;100700.91;4920345;29;1016;-33
2022/06/20 04:14:09;;;;;;;;;;;;;;;23.39;45.78;100697.84;4915373;29;1195;-32
2022/06/20 04:16:37;;;;;;;;;;;;;;;23.18;46.84;100707.09;4926795;29;993;-32
2022/06/20 04:19:23;;;;;;;;;;;;;;;22.86;47.98;100709.38;4928545;29;1159;-28
2022/06/20 04:21:48;;;;;;;;;;;;;;;22.45;48.47;100696.44;4911453;29;1005;-28
2022/06/20 04:24:23;;;;;;;;;;;;;;;22.61;48.27;100703.81;4928231;29;1890;-28
2022/06/20 04:26:48;;;;;;;;;;;;;;;23.14;50.88;100705.75;4912015;29;1001;-30
2022/06/20 04:29:17;;;;;;;;;;;;;;;24.57;45.69;100712.38;4931161;29;1230;-30
2022/06/20 04:31:50;;;;;;;;;;;;;;;24.99;47.67;100709.72;4936554;29;997;-28
2022/06/20 04:34:19;;;;;;;;;;;;;;;25.27;47.75;100714.78;4931050;29;1037;-29
2022/06/20 04:36:53;;;;;;;;;;;;;;;25.47;46.31;100706.28;4913486;29;871;-29
2022/06/20 04:39:25;;;;;;;;;;;;;;;24.68;44.11;100715.75;4931312;29;1023;-30
2022/06/20 04:41:56;;;;;;;;;;;;;;;23.89;45.71;100711.53;4924868;29;1095;-28
2022/06/20 04:44:27;;;;;;;;;;;;;;;23.38;46.85;100718.47;4926662;29;1958;-29
2022/06/20 04:46:57;;;;;;;;;;;;;;;22.89;47.60;100713.63;4910692;29;1052;-29
2022/06/20 04:49:22;;;;;;;;;;;;;;;22.53;48.13;100709.91;4907330;29;1139;-28
2022/06/20 04:51:49;;;;;;;;;;;;;;;22.38;48.68;100706.91;4930080;29;1008;-28
2022/06/20 04:54:16;;;;;;;;;;;;;;;22.16;52.20;100710.84;4920529;29;1832;-29
2022/06/20 04:56:41;;;;;;;;;;;;;;;23.76;47.95;100707.44;4934769;29;1036;-31
2022/06/20 04:59:07;;;;;;;;;;;;;;;24.39;48.34;100719.78;4934654;29;1203;-29
2022/06/20 05:01:33;;;;;;;;;;;;;;;25.01;44.48;100709.56;4926943;29;1313;-30
2022/06/20 05:04:18;;;;;;;;;;;;;;;25.10;45.26;100713.09;4912032;29;1907;-30
2022/06/20 05:06:43;;;;;;;;;;;;;;;25.05;46.87;100714.47;4920174;29;1386;-30
2022/06/20 05:09:19;;;;;;;;;;;;;;;25.34;44.25;100703.31;4920283;29;1314;-30
2022/06/20 05:11:45;;;;;;;;;;;;;;;24.37;45.59;100708.34;4922222;29;1097;-32
2022/06/20 05:14:13;;;;;;;;;;;;;;;23.20;47.40;100702.44;4920672;29;1250;-29
2022/06/20 05:16:42;;;;;;;;;;;;;;;22.70;48.63;100702.91;4915033;29;1029;-28
2022/06/20 05:19:08;;;;;;;;;;;;;;;22.18;48.86;100695.47;4921213;29;1078;-32
2022/06/20 05:21:38;;;;;;;;;;;;;;;22.58;49.10;100704.94;4929719;29;1076;-28
2022/06/20 05:24:11;;;;;;;;;;;;;;;24.32;45.49;100700.78;4917826;29;1906;-30
2022/06/20 05:26:38;;;;;;;;;;;;;;;25.06;44.39;100704.50;4935893;29;1332;-28
2022/06/20 05:29:04;;;;;;;;;;;;;;;25.29;43.81;100701.94;4910861;29;1210;-30
2022/06/20 05:31:30;;;;;;;;;;;;;;;25.58;43.90;100704.22;4917326;29;1500;-32
2022/06/20 05:33:57;;;;;;;;;;;;;;;25.77;43.59;100708.41;4905005;29;1041;-30
2022/06/20 05:36:27;;;;;;;;;;;;;;;25.90;42.65;100707.84;4908380;29;1167;-30
2022/06/20 05:39:07;;;;;;;;;;;;;;;25.88;43.32;100704.47;4929792;29;1482;-30
2022/06/20 05:41:32;;;;;;;;;;;;;;;25.94;44.25;100711.88;4929565;29;1499;-32
2022/06/20 05:43:59;;;;;;;;;;;;;;;26.12;42.31;100708.91;4909517;29;1906;-33
2022/06/20 05:46:26;;;;;;;;;;;;;;;26.24;41.79;100709.31;4928325;29;1075;-31
2022/06/20 05:48:53;;;;;;;;;;;;;;;26.12;41.81;100706.22;4908248;29;1108;-30
2022/06/20 05:51:19;;;;;;;;;;;;;;;26.18;42.56;100704.66;4911608;29;1115;-29
2022/06/20 05:53:45;;;;;;;;;;;;;;;26.19;42.34;100708.19;4928603;29;1478;-28
2022/06/20 05:56:25;;;;;;;;;;;;;;;26.20;43.76;100709.88;4913686;29;1460;-35
2022/06/20 05:58:50;;;;;;;;;;;;;;;26.22;43.00;100703.28;4916335;29;1033;-30
2022/06/20 06:01:16;;;;;;;;;;;;;;;26.29;43.21;100701.53;4913517;29;1092;-29
2022/06/20 06:03:51;;;;;;;;;;;;;;;26.47;43.89;100705.84;4919084;29;1910;-29
2022/06/20 06:06:19;;;;;;;;;;;;;;;26.70;42.34;100699.59;4920440;29;1160;-31
2022/06/20 06:08:48;;;;;;;;;;;;;;;26.40;43.37;100694.94;4932360;29;1140;-28
2022/06/20 06:11:14;;;;;;;;;;;;;;;26.61;43.97;100698.00;4929768;29;1159;-34
2022/06/20 06:13:42;;;;;;;;;;;;;;;26.58;43.80;100696.50;4934885;29;1092;-29
2022/06/20 06:19:07;;;;;;;;;;;;;;;26.46;43.86;100697.94;4913189;29;1099;-30
2022/06/20 06:21:33;;;;;;;;;;;;;;;26.74;42.97;100692.81;4912814;29;1164;-33
2022/06/20 06:23:58;;;;;;;;;;;;;;;26.47;44.15;100694.22;4931634;29;1911;-29
2022/06/20 06:26:23;;;;;;;;;;;;;;;26.46;44.84;100689.84;4911820;29;1021;-32
2022/06/20 06:28:49;;;;;;;;;;;;;;;26.52;45.08;100689.97;4932660;29;1392;-29
2022/06/20 06:31:16;;;;;;;;;;;;;;;26.60;44.86;100699.00;4921073;29;1223;-31
2022/06/20 06:33:42;;;;;;;;;;;;;;;26.63;44.97;100694.09;4936666;29;1054;-30
2022/06/20 06:36:13;;;;;;;;;;;;;;;26.85;44.29;100686.16;4912312;29;1072;-29
2022/06/20 06:38:40;;;;;;;;;;;;;;;26.81;44.55;100681.31;4908531;29;1164;-31
2022/06/20 06:41:07;;;;;;;;;;;;;;;26.49;44.99;100682.22;4908946;29;1382;-28
2022/06/20 06:43:37;;;;;;;;;;;;;;;26.70;44.87;100680.72;4904990;29;1946;-33
2022/06/20 06:46:03;;;;;;;;;;;;;;;26.58;45.57;100671.38;4909861;29;1055;-34
2022/06/20 06:48:28;;;;;;;;;;;;;;;26.56;44.82;100671.53;4920823;29;1262;-31
2022/06/20 06:50:55;;;;;;;;;;;;;;;26.36;45.21;100668.53;4936713;29;1293;-29
2022/06/20 06:53:23;;;;;;;;;;;;;;;26.73;41.63;100660.63;4919951;29;1254;-32
2022/06/20 06:55:53;;;;;;;;;;;;;;;26.15;46.07;100667.28;4918606;29;1104;-31
2022/06/20 06:58:19;;;;;;;;;;;;;;;26.12;46.50;100663.09;4936371;29;1187;-34
2022/06/20 07:00:49;;;;;;;;;;;;;;;26.33;46.29;100649.97;4932134;29;1336;-30
2022/06/20 07:03:16;;;;;;;;;;;;;;;26.41;46.15;100663.41;4914771;29;1971;-31
2022/06/20 07:05:42;;;;;;;;;;;;;;;26.57;45.50;100648.13;4937900;29;1222;-33
2022/06/20 07:08:18;;;;;;;;;;;;;;;26.33;47.14;100652.69;4918660;29;1440;-31
2022/06/20 07:10:47;;;;;;;;;;;;;;;26.08;47.96;100650.13;4922581;29;1396;-32
2022/06/20 07:13:21;;;;;;;;;;;;;;;26.45;46.05;100648.56;4930315;29;1724;-35
2022/06/20 07:15:46;;;;;;;;;;;;;;;26.55;45.99;100642.91;4933969;29;1375;-32
2022/06/20 07:18:17;;;;;;;;;;;;;;;26.58;45.85;100644.38;4923402;29;1044;-33
2022/06/20 07:20:42;;;;;;;;;;;;;;;26.62;45.52;100643.00;4922367;29;1643;-35
2022/06/20 07:23:14;;;;;;;;;;;;;;;26.99;41.71;100641.28;4941947;29;1906;-30
2022/06/20 07:25:40;;;;;;;;;;;;;;;26.88;39.72;100639.91;4916020;29;1452;-31
2022/06/20 07:28:24;;;;;;;;;;;;;;;26.65;42.67;100648.03;4921452;29;1236;-31
2022/06/20 07:30:52;;;;;;;;;;;;;;;26.68;43.06;100636.03;4926846;29;926;-30
2022/06/20 07:33:20;;;;;;;;;;;;;;;26.81;43.29;100644.34;4921858;29;1067;-31
2022/06/20 07:35:50;;;;;;;;;;;;;;;26.52;44.08;100641.41;4916321;29;919;-31
2022/06/20 07:38:19;;;;;;;;;;;;;;;26.43;44.22;100639.78;4936950;29;1000;-32
2022/06/20 07:40:56;;;;;;;;;;;;;;;27.02;43.46;100634.72;4921989;29;1143;-28
2022/06/20 07:43:33;;;;;;;;;;;;;;;27.08;43.20;100638.53;4928683;29;1902;-32
2022/06/20 07:46:01;;;;;;;;;;;;;;;26.87;43.51;100638.22;4917173;29;1386;-29
2022/06/20 07:48:37;;;;;;;;;;;;;;;26.68;43.80;100631.47;4913306;29;1064;-32
2022/06/20 07:51:02;;;;;;;;;;;;;;;26.85;43.41;100636.72;4933864;29;1388;-30
2022/06/20 07:53:30;;;;;;;;;;;;;;;26.84;42.82;100627.78;4933410;29;1221;-32
2022/06/20 07:56:00;;;;;;;;;;;;;;;27.38;41.31;100630.44;4937350;29;1031;-30
2022/06/20 07:58:26;;;;;;;;;;;;;;;27.64;38.96;100626.41;4938895;29;978;-32
2022/06/20 08:00:53;;;;;;;;;;;;;;;27.60;37.15;100628.66;4941197;29;1218;-33
2022/06/20 08:03:25;;;;;;;;;;;;;;;27.72;37.11;100626.31;4938131;29;1903;-30
2022/06/20 08:06:23;;;;;;;;;;;;;;;28.09;37.28;100628.97;4914770;29;969;-32
2022/06/20 08:08:53;;;;;;;;;;;;;;;28.20;37.86;100633.06;4917287;29;1256;-32
2022/06/20 08:11:40;;;;;;;;;;;;;;;28.12;37.88;100630.47;4913002;29;984;-31
2022/06/20 08:14:06;;;;;;;;;;;;;;;28.08;37.89;100627.31;4921446;29;989;-32
2022/06/20 08:16:32;;;;;;;;;;;;;;;28.08;37.82;100630.03;4930792;29;1013;-30
2022/06/20 08:18:58;;;;;;;;;;;;;;;28.07;38.03;100627.50;4920918;29;1199;-30
2022/06/20 08:21:26;;;;;;;;;;;;;;;28.18;37.72;100632.41;4910151;29;1262;-30
2022/06/20 08:24:01;;;;;;;;;;;;;;;28.19;38.68;100619.72;4923151;29;1899;-29
2022/06/20 08:26:34;;;;;;;;;;;;;;;28.24;37.99;100611.88;4906085;29;1139;-31
2022/06/20 08:29:00;;;;;;;;;;;;;;;28.22;37.26;100617.47;4938948;29;1012;-30
2022/06/20 08:31:29;;;;;;;;;;;;;;;25.98;40.31;100605.38;4916460;29;1071;-29
2022/06/20 08:34:05;;;;;;;;;;;;;;;22.75;42.31;100606.72;4922145;29;1036;-30
2022/06/20 08:36:34;;;;;;;;;;;;;;;22.43;46.33;100600.09;4911820;29;1476;-34
2022/06/20 08:39:08;;;;;;;;;;;;;;;22.18;47.00;100604.38;4925286;29;1052;-27
2022/06/20 08:41:46;;;;;;;;;;;;;;;21.86;47.04;100593.19;4922842;29;1604;-30
2022/06/20 08:44:17;;;;;;;;;;;;;;;21.74;47.19;100592.53;4930149;29;1970;-30
2022/06/20 08:46:58;;;;;;;;;;;;;;;21.53;47.88;100590.97;4923312;29;1206;-29
2022/06/20 08:49:35;;;;;;;;;;;;;;;21.47;47.58;100594.25;4938137;29;1191;-28
2022/06/20 08:52:19;;;;;;;;;;;;;;;23.56;45.30;100596.75;4938897;29;1020;-33
2022/06/20 08:54:44;;;;;;;;;;;;;;;25.07;45.88;100585.09;4937951;29;1512;-30
2022/06/20 08:57:36;;;;;;;;;;;;;;;25.71;39.88;100585.19;4939836;29;1245;-28
2022/06/20 09:00:16;;;;;;;;;;;;;;;26.04;40.52;100591.19;4900062;29;1153;-30
2022/06/20 09:02:56;;;;;;;;;;;;;;;26.11;43.24;100590.47;4930930;29;1981;-31
2022/06/20 09:05:30;;;;;;;;;;;;;;;23.15;44.61;100584.00;4929407;29;1432;-32
2022/06/20 09:07:56;;;;;;;;;;;;;;;21.76;47.90;100579.84;4932728;29;992;-30
2022/06/20 09:10:27;;;;;;;;;;;;;;;23.23;49.18;100587.56;4924518;29;910;-30
2022/06/20 09:12:56;;;;;;;;;;;;;;;24.94;42.53;100589.16;4927088;29;1214;-31
2022/06/20 09:15:35;;;;;;;;;;;;;;;25.53;40.83;100575.47;4925977;29;1444;-32
2022/06/20 09:18:00;;;;;;;;;;;;;;;25.88;39.99;100577.81;4923179;29;1175;-28
2022/06/20 09:20:38;;;;;;;;;;;;;;;25.67;40.25;100576.63;4934438;29;1000;-31
2022/06/20 09:23:22;;;;;;;;;;;;;;;26.01;39.95;100578.06;4930979;29;1930;-32
2022/06/20 09:25:47;;;;;;;;;;;;;;;26.48;39.34;100572.66;4932840;29;937;-32
2022/06/20 09:28:12;;;;;;;;;;;;;;;26.76;40.86;100569.34;4931866;29;1202;-31
2022/06/20 09:30:40;;;;;;;;;;;;;;;26.86;41.37;100579.03;4925704;29;965;-28
2022/06/20 09:33:24;;;;;;;;;;;;;;;27.06;41.08;100575.81;4909073;29;1132;-30
2022/06/20 09:36:08;;;;;;;;;;;;;;;27.17;41.92;100572.63;4931313;29;1237;-31
2022/06/20 09:38:42;;;;;;;;;;;;;;;25.79;44.06;100571.66;4930997;29;1041;-33
2022/06/20 09:41:22;;;;;;;;;;;;;;;26.08;43.05;100569.25;4933768;29;992;-31
2022/06/20 09:43:50;;;;;;;;;;;;;;;26.07;44.82;100576.53;4906270;29;1914;-31
2022/06/20 09:46:15;;;;;;;;;;;;;;;26.02;45.72;100568.13;4927305;29;1094;-28
2022/06/20 09:48:41;;;;;;;;;;;;;;;25.91;45.74;100562.13;4937645;29;897;-30
2022/06/20 09:51:09;;;;;;;;;;;;;;;26.88;43.03;100566.19;4934478;29;1204;-32
2022/06/20 09:53:35;;;;;;;;;;;;;;;27.48;41.62;100566.16;4936205;29;1155;-30
2022/06/20 09:56:03;;;;;;;;;;;;;;;27.56;38.99;100567.06;4931016;29;1202;-32
2022/06/20 09:58:47;;;;;;;;;;;;;;;27.59;38.80;100561.28;4924943;29;1060;-30
2022/06/20 10:01:31;;;;;;;;;;;;;;;27.73;39.89;100560.44;4930670;29;1238;-33
2022/06/20 10:04:11;;;;;;;;;;;;;;;27.91;39.22;100563.72;4933282;29;2009;-31
2022/06/20 10:06:43;;;;;;;;;;;;;;;27.98;38.90;100570.84;4925656;29;1126;-31
2022/06/20 10:09:29;;;;;;;;;;;;;;;28.05;38.54;100570.06;4939282;29;1119;-32
2022/06/20 10:12:09;;;;;;;;;;;;;;;28.21;38.42;100566.28;4926752;29;1279;-30
2022/06/20 10:14:50;;;;;;;;;;;;;;;28.42;38.27;100572.72;4907940;29;1136;-29
2022/06/20 10:17:33;;;;;;;;;;;;;;;28.33;36.69;100567.44;4926755;29;945;-30
2022/06/20 10:20:18;;;;;;;;;;;;;;;28.45;37.27;100569.59;4926718;29;2396;-31
2022/06/20 10:22:43;;;;;;;;;;;;;;;28.36;37.60;100561.63;4935527;29;1902;-33
2022/06/20 10:25:09;;;;;;;;;;;;;;;28.48;37.27;100561.94;4935938;29;1198;-32
2022/06/20 10:27:34;;;;;;;;;;;;;;;28.48;37.28;100567.34;4920367;29;1040;-33
2022/06/20 10:30:07;;;;;;;;;;;;;;;28.45;37.05;100561.50;4922691;29;1111;-30
2022/06/20 10:32:41;;;;;;;;;;;;;;;28.33;37.61;100562.03;4932588;29;1148;-29
2022/06/20 10:35:26;;;;;;;;;;;;;;;28.52;37.02;100562.38;4930815;29;981;-30
2022/06/20 10:37:58;;;;;;;;;;;;;;;28.56;36.64;100563.66;4920723;29;1112;-28
2022/06/20 10:40:32;;;;;;;;;;;;;;;28.57;37.34;100557.22;4913921;29;1211;-32
2022/06/20 10:43:03;;;;;;;;;;;;;;;28.28;37.12;100555.53;4936265;29;1977;-32
2022/06/20 10:45:35;;;;;;;;;;;;;;;28.83;36.43;100550.28;4926666;29;1278;-30
2022/06/20 10:48:09;;;;;;;;;;;;;;;28.55;37.04;100544.91;4935215;29;1017;-32
2022/06/20 10:50:36;;;;;;;;;;;;;;;28.88;35.91;100540.75;4936975;29;1357;-30
2022/06/20 10:53:06;;;;;;;;;;;;;;;28.92;35.68;100542.84;4916558;29;1095;-34
2022/06/20 10:55:43;;;;;;;;;;;;;;;28.62;35.80;100545.78;4911762;29;1492;-31
2022/06/20 10:58:35;;;;;;;;;;;;;;;28.95;35.47;100547.00;4931497;29;1248;-31
2022/06/20 11:01:05;;;;;;;;;;;;;;;28.81;36.00;100544.22;4929381;29;1262;-31
2022/06/20 11:03:42;;;;;;;;;;;;;;;28.84;35.69;100541.13;4931145;29;1956;-31
2022/06/20 11:06:08;;;;;;;;;;;;;;;28.81;35.97;100544.22;4914597;29;1357;-31
2022/06/20 11:08:39;;;;;;;;;;;;;;;28.72;34.60;100543.59;4929146;29;1147;-34
2022/06/20 11:11:08;;;;;;;;;;;;;;;28.70;35.17;100542.09;4938494;29;1027;-33
2022/06/20 11:13:37;;;;;;;;;;;;;;;28.36;36.12;100545.41;4932319;29;1035;-30
2022/06/20 11:16:08;;;;;;;;;;;;;;;28.54;36.45;100541.38;4934135;29;1040;-31
2022/06/20 11:18:37;;;;;;;;;;;;;;;28.69;36.43;100543.13;4920504;29;1309;-34
2022/06/20 11:21:03;;;;;;;;;;;;;;;28.68;36.31;100541.44;4910162;29;929;-30
2022/06/20 11:23:31;;;;;;;;;;;;;;;28.80;36.39;100539.88;4934959;29;1887;-31
2022/06/20 11:26:03;;;;;;;;;;;;;;;28.98;35.97;100537.69;4937239;29;1320;-31
2022/06/20 11:28:31;;;;;;;;;;;;;;;29.06;35.86;100534.81;4936031;29;1195;-32
2022/06/20 11:31:09;;;;;;;;;;;;;;;28.92;35.87;100533.88;4931020;29;1001;-31
2022/06/20 11:34:01;;;;;;;;;;;;;;;28.87;36.50;100531.78;4927865;29;1214;-32
2022/06/20 11:36:43;;;;;;;;;;;;;;;28.81;36.48;100529.88;4927159;29;1005;-30
2022/06/20 11:39:27;;;;;;;;;;;;;;;28.73;36.56;100528.16;4931353;29;1173;-33
2022/06/20 11:42:01;;;;;;;;;;;;;;;28.84;36.16;100529.47;4925642;29;965;-30
2022/06/20 11:44:34;;;;;;;;;;;;;;;28.43;36.73;100452.63;4931517;29;1961;-30
2022/06/20 11:47:04;;;;;;;;;;;;;;;28.90;36.69;100530.53;4909779;29;854;-33
2022/06/20 11:49:44;;;;;;;;;;;;;;;28.80;36.09;100531.75;4931718;29;961;-31
2022/06/20 11:52:42;;;;;;;;;;;;;;;28.69;34.83;100530.44;4931180;29;895;-32
2022/06/20 11:55:16;;;;;;;;;;;;;;;28.85;36.34;100533.84;4903147;29;1367;-31
2022/06/20 11:57:59;;;;;;;;;;;;;;;29.02;36.45;100522.72;4917470;29;1063;-36
2022/06/20 12:00:31;;;;;;;;;;;;;;;29.06;35.74;100522.09;4919414;29;1115;-33
2022/06/20 12:03:00;;;;;;;;;;;;;;;29.09;36.31;100518.16;4931383;29;2078;-33
2022/06/20 12:05:44;;;;;;;;;;;;;;;29.07;36.50;100523.78;4927831;29;981;-33
2022/06/20 12:08:18;;;;;;;;;;;;;;;28.83;35.77;100519.66;4924302;29;2283;-33
2022/06/20 12:10:56;;;;;;;;;;;;;;;28.92;35.68;100515.78;4929448;29;1101;-32
2022/06/20 12:13:35;;;;;;;;;;;;;;;28.99;36.49;100517.69;4917536;29;957;-33
2022/06/20 12:16:12;;;;;;;;;;;;;;;29.01;36.12;100518.34;4930293;29;902;-33
2022/06/20 12:23:18;;;;;;;;;;;;;;;28.91;35.98;100508.66;4928113;29;903;-32
2022/06/20 12:24:13;;;;;;;;;;;;;;;28.89;35.94;100513.47;4911129;29;1918;-33
2022/06/20 12:26:39;;;;;;;;;;;;;;;28.96;36.20;100508.91;4926793;29;984;-35
2022/06/20 12:29:25;;;;;;;;;;;;;;;29.01;36.09;100511.03;4937415;29;1028;-30
2022/06/20 12:31:55;;;;;;;;;;;;;;;29.12;35.91;100504.22;4925413;29;1252;-34
2022/06/20 12:34:38;;;;;;;;;;;;;;;29.09;36.14;100512.75;4919095;29;910;-31
2022/06/20 12:37:12;;;;;;;;;;;;;;;29.08;35.84;100501.06;4926632;29;966;-35
2022/06/20 12:39:38;;;;;;;;;;;;;;;29.08;35.50;100501.06;4907804;29;1210;-34
2022/06/20 12:42:23;;;;;;;;;;;;;;;29.09;35.16;100504.63;4922821;29;981;-33
2022/06/20 12:44:48;;;;;;;;;;;;;;;29.07;35.35;100498.56;4920832;29;1914;-32
2022/06/20 12:47:14;;;;;;;;;;;;;;;28.96;35.77;100495.38;4935029;29;1471;-35
2022/06/20 12:49:54;;;;;;;;;;;;;;;29.05;35.29;100492.50;4933046;29;1029;-35
2022/06/20 12:52:26;;;;;;;;;;;;;;;29.02;34.76;100491.06;4937872;29;941;-33
2022/06/20 12:55:03;;;;;;;;;;;;;;;29.09;34.52;100488.38;4932688;29;1259;-36
2022/06/20 12:57:49;;;;;;;;;;;;;;;29.07;34.52;100488.59;4927737;29;995;-32
2022/06/20 13:00:30;;;;;;;;;;;;;;;28.94;34.92;100485.78;4926254;29;1104;-30
2022/06/20 13:03:10;;;;;;;;;;;;;;;28.97;34.86;100485.41;4923063;29;1907;-34
2022/06/20 13:06:08;;;;;;;;;;;;;;;28.89;34.82;100483.69;4929199;29;1124;-33
2022/06/20 13:08:51;;;;;;;;;;;;;;;28.84;34.84;100472.63;4897468;29;1370;-33
2022/06/20 13:11:26;;;;;;;;;;;;;;;28.92;34.57;100466.19;4934305;29;933;-32
2022/06/20 13:14:00;;;;;;;;;;;;;;;28.83;34.88;100470.94;4933931;29;1154;-32
2022/06/20 13:16:31;;;;;;;;;;;;;;;28.96;34.62;100462.06;4927019;29;964;-35